sensor_id;sensor_type;location;lat;lon;timestamp;pressure;altitude;pressure_sealevel;temperature;humidity
62725;BME280;49026;52.600;4.694;2024-02-04T00:01:01;102340.38;;;8.37;100.00
62725;BME280;49026;52.600;4.694;2024-02-04T00:03:26;102339.47;;;8.40;100.00
62725;BME280;49026;52.600;4.694;2024-02-04T00:05:51;102330.78;;;8.39;100.00
62725;BME280;49026;52.600;4.694;2024-02-04T00:08:17;102333.38;;;8.39;100.00
62725;BME280;49026;52.600;4.694;2024-02-04T00:10:45;102341.25;;;8.38;100.00
62725;BME280;49026;52.600;4.694;2024-02-04T00:13:10;102333.38;;;8.38;100.00
62725;BME280;49026;52.600;4.694;2024-02-04T00:15:36;102326.47;;;8.32;100.00
62725;BME280;49026;52.600;4.694;2024-02-04T00:18:01;102330.88;;;8.25;100.00
62725;BME280;49026;52.600;4.694;2024-02-04T00:20:26;102319.53;;;8.22;100.00
62725;BME280;49026;52.600;4.694;2024-02-04T00:22:54;102321.28;;;8.20;100.00
62725;BME280;49026;52.600;4.694;2024-02-04T00:25:22;102317.84;;;8.11;100.00
62725;BME280;49026;52.600;4.694;2024-02-04T00:27:51;102322.25;;;8.03;100.00
62725;BME280;49026;52.600;4.694;2024-02-04T00:30:16;102309.25;;;7.91;100.00
62725;BME280;49026;52.600;4.694;2024-02-04T00:32:41;102322.34;;;7.85;100.00
62725;BME280;49026;52.600;4.694;2024-02-04T00:35:07;102317.19;;;7.75;100.00
62725;BME280;49026;52.600;4.694;2024-02-04T00:37:32;102317.22;;;7.66;100.00
62725;BME280;49026;52.600;4.694;2024-02-04T00:40:00;102310.28;;;7.57;100.00
62725;BME280;49026;52.600;4.694;2024-02-04T00:42:27;102312.06;;;7.49;100.00
62725;BME280;49026;52.600;4.694;2024-02-04T00:44:53;102310.34;;;7.45;100.00
62725;BME280;49026;52.600;4.694;2024-02-04T00:47:18;102314.69;;;7.41;100.00
62725;BME280;49026;52.600;4.694;2024-02-04T00:49:43;102313.88;;;7.32;100.00
62725;BME280;49026;52.600;4.694;2024-02-04T00:52:11;102311.25;;;7.24;100.00
62725;BME280;49026;52.600;4.694;2024-02-04T00:54:36;102306.03;;;7.21;100.00
62725;BME280;49026;52.600;4.694;2024-02-04T00:57:04;102301.72;;;7.14;100.00
62725;BME280;49026;52.600;4.694;2024-02-04T00:59:32;102293.00;;;7.10;100.00
62725;BME280;49026;52.600;4.694;2024-02-04T01:01:59;102300.00;;;7.03;100.00
62725;BME280;49026;52.600;4.694;2024-02-04T01:04:25;102297.38;;;7.00;100.00
62725;BME280;49026;52.600;4.694;2024-02-04T01:06:50;102305.22;;;6.96;100.00
62725;BME280;49026;52.600;4.694;2024-02-04T01:09:15;102299.13;;;6.98;100.00
62725;BME280;49026;52.600;4.694;2024-02-04T01:11:41;102296.50;;;7.03;100.00
62725;BME280;49026;52.600;4.694;2024-02-04T01:14:06;102296.47;;;7.09;100.00
62725;BME280;49026;52.600;4.694;2024-02-04T01:16:31;102306.06;;;7.09;100.00
62725;BME280;49026;52.600;4.694;2024-02-04T01:18:56;102297.34;;;7.13;100.00
62725;BME280;49026;52.600;4.694;2024-02-04T01:21:22;102301.72;;;7.15;100.00
62725;BME280;49026;52.600;4.694;2024-02-04T01:23:47;102300.81;;;7.21;100.00
62725;BME280;49026;52.600;4.694;2024-02-04T01:26:12;102301.66;;;7.24;100.00
62725;BME280;49026;52.600;4.694;2024-02-04T01:28:40;102296.44;;;7.28;100.00
62725;BME280;49026;52.600;4.694;2024-02-04T01:31:05;102305.13;;;7.31;100.00
62725;BME280;49026;52.600;4.694;2024-02-04T01:33:31;102318.19;;;7.34;100.00
62725;BME280;49026;52.600;4.694;2024-02-04T01:35:56;102315.59;;;7.37;100.00
62725;BME280;49026;52.600;4.694;2024-02-04T01:38:26;102321.69;;;7.36;100.00
62725;BME280;49026;52.600;4.694;2024-02-04T01:40:51;102309.50;;;7.32;100.00
62725;BME280;49026;52.600;4.694;2024-02-04T01:43:19;102329.56;;;7.29;100.00
62725;BME280;49026;52.600;4.694;2024-02-04T01:45:47;102315.59;;;7.27;99.84
62725;BME280;49026;52.600;4.694;2024-02-04T01:48:15;102319.09;;;7.19;98.83
62725;BME280;49026;52.600;4.694;2024-02-04T01:50:43;102320.00;;;7.12;98.99
62725;BME280;49026;52.600;4.694;2024-02-04T01:53:09;102320.88;;;7.07;99.01
62725;BME280;49026;52.600;4.694;2024-02-04T01:55:35;102319.16;;;6.98;98.55
62725;BME280;49026;52.600;4.694;2024-02-04T01:58:01;102321.75;;;6.96;97.66
62725;BME280;49026;52.600;4.694;2024-02-04T02:00:27;102312.19;;;6.88;97.60
62725;BME280;49026;52.600;4.694;2024-02-04T02:02:53;102304.34;;;6.80;96.97
62725;BME280;49026;52.600;4.694;2024-02-04T02:05:18;102294.78;;;6.71;97.07
62725;BME280;49026;52.600;4.694;2024-02-04T02:07:43;102288.69;;;6.64;97.29
62725;BME280;49026;52.600;4.694;2024-02-04T02:10:11;102279.13;;;6.60;97.98
62725;BME280;49026;52.600;4.694;2024-02-04T02:12:50;102275.66;;;6.55;97.59
62725;BME280;49026;52.600;4.694;2024-02-04T02:15:25;102276.53;;;6.53;97.60
62725;BME280;49026;52.600;4.694;2024-02-04T02:17:57;102267.81;;;6.47;97.08
62725;BME280;49026;52.600;4.694;2024-02-04T02:20:27;102276.50;;;6.48;97.78
62725;BME280;49026;52.600;4.694;2024-02-04T02:23:03;102267.81;;;6.46;98.14
62725;BME280;49026;52.600;4.694;2024-02-04T02:25:36;102278.25;;;6.43;98.33
62725;BME280;49026;52.600;4.694;2024-02-04T02:28:03;102285.22;;;6.44;98.34
62725;BME280;49026;52.600;4.694;2024-02-04T02:30:30;102286.97;;;6.43;98.27
62725;BME280;49026;52.600;4.694;2024-02-04T02:32:59;102280.00;;;6.41;98.50
62725;BME280;49026;52.600;4.694;2024-02-04T02:35:25;102288.69;;;6.40;98.00
62725;BME280;49026;52.600;4.694;2024-02-04T02:38:14;102293.91;;;6.40;98.16
62725;BME280;49026;52.600;4.694;2024-02-04T02:40:47;102294.81;;;6.37;98.29
62725;BME280;49026;52.600;4.694;2024-02-04T02:43:13;102303.50;;;6.38;98.35
62725;BME280;49026;52.600;4.694;2024-02-04T02:45:42;102311.31;;;6.36;99.33
62725;BME280;49026;52.600;4.694;2024-02-04T02:48:11;102305.25;;;6.33;98.81
62725;BME280;49026;52.600;4.694;2024-02-04T02:50:37;102284.34;;;6.34;99.16
62725;BME280;49026;52.600;4.694;2024-02-04T02:53:02;102295.66;;;6.36;99.30
62725;BME280;49026;52.600;4.694;2024-02-04T02:55:30;102311.34;;;6.41;99.52
62725;BME280;49026;52.600;4.694;2024-02-04T02:57:55;102307.84;;;6.49;100.00
62725;BME280;49026;52.600;4.694;2024-02-04T03:00:21;102306.13;;;6.59;100.00
62725;BME280;49026;52.600;4.694;2024-02-04T03:02:46;102306.13;;;6.72;100.00
62725;BME280;49026;52.600;4.694;2024-02-04T03:05:12;102307.00;;;6.78;100.00
62725;BME280;49026;52.600;4.694;2024-02-04T03:07:37;102300.03;;;6.83;100.00
62725;BME280;49026;52.600;4.694;2024-02-04T03:10:05;102286.94;;;6.88;100.00
62725;BME280;49026;52.600;4.694;2024-02-04T03:12:31;102297.38;;;6.91;100.00
62725;BME280;49026;52.600;4.694;2024-02-04T03:14:58;102300.00;;;6.94;100.00
62725;BME280;49026;52.600;4.694;2024-02-04T03:17:26;102282.56;;;6.99;100.00
62725;BME280;49026;52.600;4.694;2024-02-04T03:19:53;102286.94;;;7.02;100.00
62725;BME280;49026;52.600;4.694;2024-02-04T03:22:21;102281.69;;;7.03;100.00
62725;BME280;49026;52.600;4.694;2024-02-04T03:24:48;102290.41;;;7.05;100.00
62725;BME280;49026;52.600;4.694;2024-02-04T03:27:13;102302.56;;;7.08;100.00
62725;BME280;49026;52.600;4.694;2024-02-04T03:29:38;102303.47;;;7.10;100.00
62725;BME280;49026;52.600;4.694;2024-02-04T03:32:04;102308.69;;;7.10;100.00
62725;BME280;49026;52.600;4.694;2024-02-04T03:34:31;102312.16;;;7.12;100.00
62725;BME280;49026;52.600;4.694;2024-02-04T03:36:57;102302.56;;;7.13;100.00
62725;BME280;49026;52.600;4.694;2024-02-04T03:39:24;102321.72;;;7.15;100.00
62725;BME280;49026;52.600;4.694;2024-02-04T03:41:49;102309.56;;;7.17;100.00
62725;BME280;49026;52.600;4.694;2024-02-04T03:44:15;102293.81;;;7.20;99.89
62725;BME280;49026;52.600;4.694;2024-02-04T03:46:40;102292.09;;;7.19;99.82
62725;BME280;49026;52.600;4.694;2024-02-04T03:49:07;102285.13;;;7.18;100.00
62725;BME280;49026;52.600;4.694;2024-02-04T03:51:32;102265.97;;;7.17;99.33
62725;BME280;49026;52.600;4.694;2024-02-04T03:54:00;102267.72;;;7.17;99.38
62725;BME280;49026;52.600;4.694;2024-02-04T03:56:25;102257.25;;;7.17;99.29
62725;BME280;49026;52.600;4.694;2024-02-04T03:58:50;102269.44;;;7.15;99.67
62725;BME280;49026;52.600;4.694;2024-02-04T04:01:16;102249.41;;;7.15;98.94
62725;BME280;49026;52.600;4.694;2024-02-04T04:03:42;102265.09;;;7.15;99.37
62725;BME280;49026;52.600;4.694;2024-02-04T04:06:10;102265.97;;;7.16;99.45
62725;BME280;49026;52.600;4.694;2024-02-04T04:08:36;102259.88;;;7.18;99.09
62725;BME280;49026;52.600;4.694;2024-02-04T04:11:05;102259.88;;;7.18;98.75
62725;BME280;49026;52.600;4.694;2024-02-04T04:13:30;102265.97;;;7.19;99.29
62725;BME280;49026;52.600;4.694;2024-02-04T04:15:59;102261.59;;;7.24;98.44
62725;BME280;49026;52.600;4.694;2024-02-04T04:18:26;102263.34;;;7.23;98.20
62725;BME280;49026;52.600;4.694;2024-02-04T04:20:52;102263.31;;;7.27;97.75
62725;BME280;49026;52.600;4.694;2024-02-04T04:23:17;102265.91;;;7.28;97.97
62725;BME280;49026;52.600;4.694;2024-02-04T04:25:42;102251.13;;;7.27;97.57
62725;BME280;49026;52.600;4.694;2024-02-04T04:28:08;102251.13;;;7.24;97.29
62725;BME280;49026;52.600;4.694;2024-02-04T04:30:33;102256.34;;;7.24;97.22
62725;BME280;49026;52.600;4.694;2024-02-04T04:32:58;102254.59;;;7.23;97.19
62725;BME280;49026;52.600;4.694;2024-02-04T04:35:24;102255.50;;;7.20;97.99
62725;BME280;49026;52.600;4.694;2024-02-04T04:37:53;102241.53;;;7.20;97.58
62725;BME280;49026;52.600;4.694;2024-02-04T04:40:18;102227.63;;;7.16;97.96
62725;BME280;49026;52.600;4.694;2024-02-04T04:42:43;102228.50;;;7.15;97.83
62725;BME280;49026;52.600;4.694;2024-02-04T04:45:11;102230.22;;;7.16;98.06
62725;BME280;49026;52.600;4.694;2024-02-04T04:47:37;102229.38;;;7.19;97.73
62725;BME280;49026;52.600;4.694;2024-02-04T04:50:05;102229.38;;;7.19;97.50
62725;BME280;49026;52.600;4.694;2024-02-04T04:52:30;102239.81;;;7.16;97.53
62725;BME280;49026;52.600;4.694;2024-02-04T04:54:58;102218.91;;;7.16;97.52
62725;BME280;49026;52.600;4.694;2024-02-04T04:57:25;102238.97;;;7.17;97.31
62725;BME280;49026;52.600;4.694;2024-02-04T04:59:51;102239.81;;;7.16;97.79
62725;BME280;49026;52.600;4.694;2024-02-04T05:02:16;102245.06;;;7.16;97.39
62725;BME280;49026;52.600;4.694;2024-02-04T05:04:43;102235.47;;;7.15;97.99
62725;BME280;49026;52.600;4.694;2024-02-04T05:07:09;102215.44;;;7.15;98.19
62725;BME280;49026;52.600;4.694;2024-02-04T05:09:37;102208.47;;;7.16;97.63
62725;BME280;49026;52.600;4.694;2024-02-04T05:12:03;102213.69;;;7.16;98.20
62725;BME280;49026;52.600;4.694;2024-02-04T05:14:30;102198.00;;;7.16;98.25
62725;BME280;49026;52.600;4.694;2024-02-04T05:16:56;102195.38;;;7.16;98.28
62725;BME280;49026;52.600;4.694;2024-02-04T05:19:21;102213.69;;;7.16;97.88
62725;BME280;49026;52.600;4.694;2024-02-04T05:21:46;102216.31;;;7.14;98.14
62725;BME280;49026;52.600;4.694;2024-02-04T05:24:12;102213.69;;;7.16;98.15
62725;BME280;49026;52.600;4.694;2024-02-04T05:26:37;102197.13;;;7.18;98.14
62725;BME280;49026;52.600;4.694;2024-02-04T05:29:04;102222.38;;;7.21;98.01
62725;BME280;49026;52.600;4.694;2024-02-04T05:31:32;102218.00;;;7.23;97.90
62725;BME280;49026;52.600;4.694;2024-02-04T05:33:57;102208.44;;;7.23;98.17
62725;BME280;49026;52.600;4.694;2024-02-04T05:36:25;102209.28;;;7.26;98.39
62725;BME280;49026;52.600;4.694;2024-02-04T05:38:51;102185.75;;;7.29;98.09
62725;BME280;49026;52.600;4.694;2024-02-04T05:41:16;102197.06;;;7.31;98.65
62725;BME280;49026;52.600;4.694;2024-02-04T05:43:44;102205.75;;;7.33;98.58
62725;BME280;49026;52.600;4.694;2024-02-04T05:46:13;102190.91;;;7.36;98.31
62725;BME280;49026;52.600;4.694;2024-02-04T05:48:38;102197.88;;;7.40;98.09
62725;BME280;49026;52.600;4.694;2024-02-04T05:51:05;102202.22;;;7.41;98.44
62725;BME280;49026;52.600;4.694;2024-02-04T05:53:31;102194.38;;;7.45;97.98
62725;BME280;49026;52.600;4.694;2024-02-04T05:55:58;102177.81;;;7.44;97.76
62725;BME280;49026;52.600;4.694;2024-02-04T05:58:23;102187.41;;;7.45;97.46
62725;BME280;49026;52.600;4.694;2024-02-04T06:00:49;102162.13;;;7.46;97.79
62725;BME280;49026;52.600;4.694;2024-02-04T06:03:16;102148.13;;;7.47;97.88
62725;BME280;49026;52.600;4.694;2024-02-04T06:05:41;102164.72;;;7.49;97.76
62725;BME280;49026;52.600;4.694;2024-02-04T06:08:07;102155.09;;;7.52;98.14
62725;BME280;49026;52.600;4.694;2024-02-04T06:10:32;102164.66;;;7.56;97.82
62725;BME280;49026;52.600;4.694;2024-02-04T06:12:57;102155.94;;;7.59;97.35
62725;BME280;49026;52.600;4.694;2024-02-04T06:15:25;102142.84;;;7.59;97.18
62725;BME280;49026;52.600;4.694;2024-02-04T06:17:50;102135.88;;;7.59;97.43
62725;BME280;49026;52.600;4.694;2024-02-04T06:20:15;102146.31;;;7.59;97.59
62725;BME280;49026;52.600;4.694;2024-02-04T06:22:43;102157.63;;;7.61;97.80
62725;BME280;49026;52.600;4.694;2024-02-04T06:25:08;102156.75;;;7.66;97.44
62725;BME280;49026;52.600;4.694;2024-02-04T06:27:36;102157.59;;;7.72;97.14
62725;BME280;49026;52.600;4.694;2024-02-04T06:30:01;102162.81;;;7.75;97.00
62725;BME280;49026;52.600;4.694;2024-02-04T06:32:26;102147.09;;;7.78;97.61
62725;BME280;49026;52.600;4.694;2024-02-04T06:34:54;102144.41;;;7.82;97.58
62725;BME280;49026;52.600;4.694;2024-02-04T06:37:20;102147.84;;;7.87;97.28
62725;BME280;49026;52.600;4.694;2024-02-04T06:39:50;102134.72;;;7.93;97.05
62725;BME280;49026;52.600;4.694;2024-02-04T06:42:15;102152.16;;;7.97;96.80
62725;BME280;49026;52.600;4.694;2024-02-04T06:44:44;102146.03;;;8.00;97.18
62725;BME280;49026;52.600;4.694;2024-02-04T06:47:10;102144.22;;;8.05;97.09
62725;BME280;49026;52.600;4.694;2024-02-04T06:49:37;102132.88;;;8.07;96.67
62725;BME280;49026;52.600;4.694;2024-02-04T06:52:06;102141.56;;;8.09;97.27
62725;BME280;49026;52.600;4.694;2024-02-04T06:54:31;102131.09;;;8.09;96.67
62725;BME280;49026;52.600;4.694;2024-02-04T06:56:59;102135.47;;;8.09;96.66
62725;BME280;49026;52.600;4.694;2024-02-04T06:59:24;102125.81;;;8.15;96.10
62725;BME280;49026;52.600;4.694;2024-02-04T07:01:49;102136.28;;;8.15;95.61
62725;BME280;49026;52.600;4.694;2024-02-04T07:04:15;102134.53;;;8.18;95.80
62725;BME280;49026;52.600;4.694;2024-02-04T07:06:42;102138.00;;;8.20;95.23
62725;BME280;49026;52.600;4.694;2024-02-04T07:09:11;102151.03;;;8.24;95.25
62725;BME280;49026;52.600;4.694;2024-02-04T07:11:36;102149.28;;;8.26;94.53
62725;BME280;49026;52.600;4.694;2024-02-04T07:14:03;102144.88;;;8.27;94.97
62725;BME280;49026;52.600;4.694;2024-02-04T07:16:31;102134.41;;;8.30;95.28
62725;BME280;49026;52.600;4.694;2024-02-04T07:18:58;102131.75;;;8.31;95.12
62725;BME280;49026;52.600;4.694;2024-02-04T07:21:23;102131.75;;;8.33;95.23
62725;BME280;49026;52.600;4.694;2024-02-04T07:23:49;102129.16;;;8.28;94.94
62725;BME280;49026;52.600;4.694;2024-02-04T07:26:14;102140.53;;;8.29;95.38
62725;BME280;49026;52.600;4.694;2024-02-04T07:28:40;102136.16;;;8.28;95.74
62725;BME280;49026;52.600;4.694;2024-02-04T07:31:05;102132.69;;;8.26;96.20
62725;BME280;49026;52.600;4.694;2024-02-04T07:33:30;102110.03;;;8.22;96.55
62725;BME280;49026;52.600;4.694;2024-02-04T07:35:58;102124.03;;;8.19;96.55
62725;BME280;49026;52.600;4.694;2024-02-04T07:38:23;102117.09;;;8.13;97.13
62725;BME280;49026;52.600;4.694;2024-02-04T07:40:49;102134.56;;;8.11;96.97
62725;BME280;49026;52.600;4.694;2024-02-04T07:43:16;102135.47;;;8.10;97.52
62725;BME280;49026;52.600;4.694;2024-02-04T07:45:42;102149.44;;;8.09;97.74
62725;BME280;49026;52.600;4.694;2024-02-04T07:48:07;102144.19;;;8.09;97.87
62725;BME280;49026;52.600;4.694;2024-02-04T07:50:34;102151.19;;;8.09;98.16
62725;BME280;49026;52.600;4.694;2024-02-04T07:52:59;102138.97;;;8.08;98.90
62725;BME280;49026;52.600;4.694;2024-02-04T07:55:27;102140.72;;;8.07;98.92
62725;BME280;49026;52.600;4.694;2024-02-04T07:57:52;102145.06;;;8.08;99.30
62725;BME280;49026;52.600;4.694;2024-02-04T08:00:20;102131.09;;;8.09;99.12
62725;BME280;49026;52.600;4.694;2024-02-04T08:02:46;102145.03;;;8.11;99.19
62725;BME280;49026;52.600;4.694;2024-02-04T08:05:12;102112.78;;;8.11;99.47
62725;BME280;49026;52.600;4.694;2024-02-04T08:07:40;102129.34;;;8.10;99.42
62725;BME280;49026;52.600;4.694;2024-02-04T08:10:06;102132.78;;;8.13;99.65
62725;BME280;49026;52.600;4.694;2024-02-04T08:12:32;102120.59;;;8.15;99.03
62725;BME280;49026;52.600;4.694;2024-02-04T08:14:57;102131.03;;;8.17;99.33
62725;BME280;49026;52.600;4.694;2024-02-04T08:17:23;102120.56;;;8.19;99.37
62725;BME280;49026;52.600;4.694;2024-02-04T08:19:48;102109.19;;;8.20;99.20
62725;BME280;49026;52.600;4.694;2024-02-04T08:22:13;102103.94;;;8.20;99.10
62725;BME280;49026;52.600;4.694;2024-02-04T08:24:39;102110.09;;;8.19;99.10
62725;BME280;49026;52.600;4.694;2024-02-04T08:27:06;102101.34;;;8.18;99.46
62725;BME280;49026;52.600;4.694;2024-02-04T08:29:31;102099.63;;;8.19;99.17
62725;BME280;49026;52.600;4.694;2024-02-04T08:31:57;102096.09;;;8.20;99.22
62725;BME280;49026;52.600;4.694;2024-02-04T08:34:22;102089.16;;;8.15;99.57
62725;BME280;49026;52.600;4.694;2024-02-04T08:36:51;102088.28;;;8.15;99.69
62725;BME280;49026;52.600;4.694;2024-02-04T08:39:16;102069.94;;;8.16;99.82
62725;BME280;49026;52.600;4.694;2024-02-04T08:41:42;102088.25;;;8.18;99.67
62725;BME280;49026;52.600;4.694;2024-02-04T08:44:07;102090.84;;;8.23;99.63
62725;BME280;49026;52.600;4.694;2024-02-04T08:46:32;102077.69;;;8.29;100.00
62725;BME280;49026;52.600;4.694;2024-02-04T08:49:00;102085.50;;;8.32;100.00
62725;BME280;49026;52.600;4.694;2024-02-04T08:51:27;102088.97;;;8.35;100.00
62725;BME280;49026;52.600;4.694;2024-02-04T08:53:52;102104.59;;;8.45;100.00
62725;BME280;49026;52.600;4.694;2024-02-04T08:56:20;102101.97;;;8.45;100.00
62725;BME280;49026;52.600;4.694;2024-02-04T08:58:45;102101.97;;;8.46;100.00
62725;BME280;49026;52.600;4.694;2024-02-04T09:01:13;102101.09;;;8.47;100.00
62725;BME280;49026;52.600;4.694;2024-02-04T09:03:38;102099.31;;;8.48;100.00
62725;BME280;49026;52.600;4.694;2024-02-04T09:06:03;102093.19;;;8.50;100.00
62725;BME280;49026;52.600;4.694;2024-02-04T09:08:29;102101.94;;;8.49;100.00
62725;BME280;49026;52.600;4.694;2024-02-04T09:10:55;102097.56;;;8.48;100.00
62725;BME280;49026;52.600;4.694;2024-02-04T09:13:20;102105.41;;;8.48;100.00
62725;BME280;49026;52.600;4.694;2024-02-04T09:15:47;102081.81;;;8.51;100.00
62725;BME280;49026;52.600;4.694;2024-02-04T09:18:13;102087.88;;;8.53;100.00
62725;BME280;49026;52.600;4.694;2024-02-04T09:20:40;102088.75;;;8.57;100.00
62725;BME280;49026;52.600;4.694;2024-02-04T09:23:05;102080.81;;;8.62;100.00
62725;BME280;49026;52.600;4.694;2024-02-04T09:25:31;102080.78;;;8.65;100.00
62725;BME280;49026;52.600;4.694;2024-02-04T09:27:58;102072.91;;;8.66;100.00
62725;BME280;49026;52.600;4.694;2024-02-04T09:30:23;102077.25;;;8.69;100.00
62725;BME280;49026;52.600;4.694;2024-02-04T09:32:49;102098.19;;;8.72;100.00
62725;BME280;49026;52.600;4.694;2024-02-04T09:35:14;102099.00;;;8.77;100.00
62725;BME280;49026;52.600;4.694;2024-02-04T09:37:39;102090.19;;;8.81;100.00
62725;BME280;49026;52.600;4.694;2024-02-04T09:40:05;102101.50;;;8.83;100.00
62725;BME280;49026;52.600;4.694;2024-02-04T09:42:30;102102.38;;;8.85;100.00
62725;BME280;49026;52.600;4.694;2024-02-04T09:44:59;102098.03;;;8.84;100.00
62725;BME280;49026;52.600;4.694;2024-02-04T09:47:25;102093.63;;;8.85;100.00
62725;BME280;49026;52.600;4.694;2024-02-04T09:49:53;102089.22;;;8.87;100.00
62725;BME280;49026;52.600;4.694;2024-02-04T09:52:28;102097.94;;;8.90;100.00
62725;BME280;49026;52.600;4.694;2024-02-04T09:55:00;102116.22;;;8.94;100.00
62725;BME280;49026;52.600;4.694;2024-02-04T09:57:26;102116.22;;;8.95;100.00
62725;BME280;49026;52.600;4.694;2024-02-04T09:59:51;102110.13;;;8.93;100.00
62725;BME280;49026;52.600;4.694;2024-02-04T10:02:17;102110.13;;;8.95;100.00
62725;BME280;49026;52.600;4.694;2024-02-04T10:04:42;102118.84;;;8.95;100.00
62725;BME280;49026;52.600;4.694;2024-02-04T10:07:08;102109.19;;;8.99;100.00
62725;BME280;49026;52.600;4.694;2024-02-04T10:09:33;102118.75;;;9.01;100.00
62725;BME280;49026;52.600;4.694;2024-02-04T10:11:59;102126.59;;;9.04;100.00
62725;BME280;49026;52.600;4.694;2024-02-04T10:14:24;102123.91;;;9.11;100.00
62725;BME280;49026;52.600;4.694;2024-02-04T10:16:49;102120.34;;;9.13;100.00
62725;BME280;49026;52.600;4.694;2024-02-04T10:19:15;102109.84;;;9.15;100.00
62725;BME280;49026;52.600;4.694;2024-02-04T10:21:40;102106.34;;;9.16;100.00
62725;BME280;49026;52.600;4.694;2024-02-04T10:24:09;102087.97;;;9.17;99.89
62725;BME280;49026;52.600;4.694;2024-02-04T10:26:35;102111.59;;;9.16;100.00
62725;BME280;49026;52.600;4.694;2024-02-04T10:29:02;102115.06;;;9.18;99.67
62725;BME280;49026;52.600;4.694;2024-02-04T10:31:28;102112.41;;;9.19;99.85
62725;BME280;49026;52.600;4.694;2024-02-04T10:33:56;102120.25;;;9.22;99.58
62725;BME280;49026;52.600;4.694;2024-02-04T10:36:22;102126.41;;;9.17;99.36
62725;BME280;49026;52.600;4.694;2024-02-04T10:38:54;102124.69;;;9.17;99.74
62725;BME280;49026;52.600;4.694;2024-02-04T10:41:20;102117.66;;;9.19;99.71
62725;BME280;49026;52.600;4.694;2024-02-04T10:43:48;102114.13;;;9.20;99.85
62725;BME280;49026;52.600;4.694;2024-02-04T10:46:19;102115.88;;;9.21;99.68
62725;BME280;49026;52.600;4.694;2024-02-04T10:48:52;102134.19;;;9.24;99.74
62725;BME280;49026;52.600;4.694;2024-02-04T10:51:24;102138.50;;;9.28;99.95
62725;BME280;49026;52.600;4.694;2024-02-04T10:53:54;102134.91;;;9.36;99.96
62725;BME280;49026;52.600;4.694;2024-02-04T10:56:46;102128.72;;;9.40;99.81
62725;BME280;49026;52.600;4.694;2024-02-04T10:59:20;102140.94;;;9.42;99.83
62725;BME280;49026;52.600;4.694;2024-02-04T11:01:49;102127.84;;;9.41;99.69
62725;BME280;49026;52.600;4.694;2024-02-04T11:04:16;102126.06;;;9.43;99.43
62725;BME280;49026;52.600;4.694;2024-02-04T11:06:42;102135.69;;;9.44;99.25
62725;BME280;49026;52.600;4.694;2024-02-04T11:09:09;102123.41;;;9.46;99.00
62725;BME280;49026;52.600;4.694;2024-02-04T11:11:38;102105.84;;;9.50;99.43
62725;BME280;49026;52.600;4.694;2024-02-04T11:14:06;102110.13;;;9.55;99.42
62725;BME280;49026;52.600;4.694;2024-02-04T11:27:32;102094.22;;;9.66;98.55
62725;BME280;49026;52.600;4.694;2024-02-04T11:29:58;102091.44;;;9.74;97.96
62725;BME280;49026;52.600;4.694;2024-02-04T11:32:26;102092.47;;;9.65;97.83
62725;BME280;49026;52.600;4.694;2024-02-04T11:34:53;102102.19;;;9.60;98.44
62725;BME280;49026;52.600;4.694;2024-02-04T11:37:20;102101.38;;;9.56;98.57
62725;BME280;49026;52.600;4.694;2024-02-04T11:39:52;102098.88;;;9.47;98.61
62725;BME280;49026;52.600;4.694;2024-02-04T11:42:18;102090.19;;;9.43;98.50
62725;BME280;49026;52.600;4.694;2024-02-04T11:44:45;102098.97;;;9.42;99.17
62725;BME280;49026;52.600;4.694;2024-02-04T11:47:10;102084.09;;;9.43;99.48
62725;BME280;49026;52.600;4.694;2024-02-04T11:49:36;102089.31;;;9.44;98.85
62725;BME280;49026;52.600;4.694;2024-02-04T11:52:01;102089.38;;;9.40;99.45
62725;BME280;49026;52.600;4.694;2024-02-04T11:54:27;102071.91;;;9.39;99.48
62725;BME280;49026;52.600;4.694;2024-02-04T11:56:53;102079.81;;;9.37;99.60
62725;BME280;49026;52.600;4.694;2024-02-04T11:59:23;102054.47;;;9.35;99.62
62725;BME280;49026;52.600;4.694;2024-02-04T12:01:49;102080.72;;;9.33;99.67
62725;BME280;49026;52.600;4.694;2024-02-04T12:04:17;102078.09;;;9.35;99.82
62725;BME280;49026;52.600;4.694;2024-02-04T12:06:42;102081.53;;;9.38;100.00
62725;BME280;49026;52.600;4.694;2024-02-04T12:09:11;102069.19;;;9.43;99.99
62725;BME280;49026;52.600;4.694;2024-02-04T12:11:38;102065.69;;;9.44;100.00
62725;BME280;49026;52.600;4.694;2024-02-04T12:14:07;102071.78;;;9.45;100.00
62725;BME280;49026;52.600;4.694;2024-02-04T12:16:33;102063.91;;;9.46;100.00
62725;BME280;49026;52.600;4.694;2024-02-04T12:19:04;102063.97;;;9.42;99.92
62725;BME280;49026;52.600;4.694;2024-02-04T12:21:29;102060.47;;;9.43;100.00
62725;BME280;49026;52.600;4.694;2024-02-04T12:23:55;102049.94;;;9.46;100.00
62725;BME280;49026;52.600;4.694;2024-02-04T12:26:23;102033.34;;;9.44;99.71
62725;BME280;49026;52.600;4.694;2024-02-04T12:28:50;102033.28;;;9.47;100.00
62725;BME280;49026;52.600;4.694;2024-02-04T12:31:20;102037.56;;;9.54;100.00
62725;BME280;49026;52.600;4.694;2024-02-04T12:34:12;102037.47;;;9.59;100.00
62725;BME280;49026;52.600;4.694;2024-02-04T12:36:40;102050.69;;;9.54;100.00
62725;BME280;49026;52.600;4.694;2024-02-04T12:39:07;102042.09;;;9.43;100.00
62725;BME280;49026;52.600;4.694;2024-02-04T12:41:37;102055.41;;;9.32;100.00
62725;BME280;49026;52.600;4.694;2024-02-04T12:44:05;102044.13;;;9.25;100.00
62725;BME280;49026;52.600;4.694;2024-02-04T12:46:30;102035.53;;;9.17;100.00
62725;BME280;49026;52.600;4.694;2024-02-04T12:48:58;102046.91;;;9.15;100.00
62725;BME280;49026;52.600;4.694;2024-02-04T12:51:28;102033.84;;;9.10;100.00
62725;BME280;49026;52.600;4.694;2024-02-04T12:54:09;102015.53;;;9.07;100.00
62725;BME280;49026;52.600;4.694;2024-02-04T12:56:52;102029.53;;;9.09;100.00
62725;BME280;49026;52.600;4.694;2024-02-04T12:59:24;102022.50;;;9.09;100.00
62725;BME280;49026;52.600;4.694;2024-02-04T13:01:54;102022.53;;;9.08;100.00
62725;BME280;49026;52.600;4.694;2024-02-04T13:04:20;102023.41;;;9.07;100.00